Time,TemperatureF,DewpointF,PressureIn,WindDirection,WindDirectionDegrees,WindSpeedMPH,WindSpeedGustMPH,Humidity,HourlyPrecipIn,Conditions,Clouds,dailyrainin,SolarRadiationWatts/m^2,SoftwareType,DateUTC
2013-10-03 00:09:00,59.8,58.0,30.00,West,266,0.0,-999.0,95,-99.99,,,0.00,0,weatherlink.com 1.10,2013-10-03 04:09:00,
2013-10-03 00:20:00,59.7,58.3,30.00,West,266,0.0,0.0,95,0.00,,,0.00,0,Wunderground v.1.15,2013-10-03 04:20:00,
2013-10-03 00:26:00,59.6,58.2,30.00,West,266,0.0,0.0,95,0.00,,,0.00,0,Wunderground v.1.15,2013-10-03 04:26:00,
2013-10-03 00:39:00,59.3,58.0,29.99,West,266,0.0,-999.0,95,-99.99,,,0.00,0,weatherlink.com 1.10,2013-10-03 04:39:00,
2013-10-03 00:54:00,59.4,58.0,30.00,West,266,0.0,-999.0,95,-99.99,,,0.00,0,weatherlink.com 1.10,2013-10-03 04:54:00,
2013-10-03 00:55:00,59.4,58.0,30.00,West,266,0.0,0.0,95,0.00,,,0.00,0,Wunderground v.1.15,2013-10-03 04:55:00,
2013-10-03 01:06:00,59.1,58.0,30.00,West,266,0.0,0.0,96,0.00,,,0.00,0,Wunderground v.1.15,2013-10-03 05:06:00,
2013-10-03 01:20:00,59.0,57.6,30.00,West,266,0.0,0.0,95,0.00,,,0.00,0,Wunderground v.1.15,2013-10-03 05:20:00,
2013-10-03 01:39:00,58.9,58.0,30.00,West,266,0.0,-999.0,96,-99.99,,,0.00,0,weatherlink.com 1.10,2013-10-03 05:39:00,
2013-10-03 01:45:00,58.8,57.7,30.00,West,266,0.0,0.0,96,0.00,,,0.00,0,Wunderground v.1.15,2013-10-03 05:45:00,
2013-10-03 01:54:00,58.7,58.0,30.01,West,266,0.0,-999.0,96,-99.99,,,0.00,0,weatherlink.com 1.10,2013-10-03 05:54:00,
2013-10-03 02:06:00,58.4,57.3,30.01,West,266,0.0,0.0,96,0.00,,,0.00,0,Wunderground v.1.15,2013-10-03 06:06:00,
2013-10-03 02:11:00,58.1,56.7,30.01,West,266,0.0,0.0,95,0.00,,,0.00,0,Wunderground v.1.15,2013-10-03 06:11:00,
2013-10-03 02:24:00,57.8,57.0,30.01,West,266,0.0,-999.0,96,-99.99,,,0.00,0,weatherlink.com 1.10,2013-10-03 06:24:00,
2013-10-03 02:39:00,57.8,57.0,30.01,West,266,0.0,-999.0,96,-99.99,,,0.00,0,weatherlink.com 1.10,2013-10-03 06:39:00,
2013-10-03 02:46:00,57.8,56.7,30.01,West,266,0.0,0.0,96,0.00,,,0.00,0,Wunderground v.1.15,2013-10-03 06:46:00,
2013-10-03 02:54:00,57.9,57.0,30.01,West,266,0.0,-999.0,96,-99.99,,,0.00,0,weatherlink.com 1.10,2013-10-03 06:54:00,
2013-10-03 03:06:00,57.7,56.6,30.01,West,266,0.0,0.0,96,0.00,,,0.00,0,Wunderground v.1.15,2013-10-03 07:06:00,
2013-10-03 03:24:00,57.3,56.0,30.01,West,266,0.0,-999.0,96,-99.99,,,0.00,0,weatherlink.com 1.10,2013-10-03 07:24:00,
2013-10-03 03:31:00,57.1,56.0,30.01,West,266,0.0,0.0,96,0.00,,,0.00,0,Wunderground v.1.15,2013-10-03 07:31:00,
2013-10-03 03:39:00,57.0,56.0,30.02,West,266,0.0,-999.0,96,-99.99,,,0.00,0,weatherlink.com 1.10,2013-10-03 07:39:00,
2013-10-03 03:45:00,57.0,55.9,30.01,West,266,0.0,0.0,96,0.00,,,0.00,0,Wunderground v.1.15,2013-10-03 07:45:00,
2013-10-03 03:51:00,56.9,55.8,30.02,West,266,0.0,0.0,96,0.00,,,0.00,0,Wunderground v.1.15,2013-10-03 07:51:00,
2013-10-03 04:05:00,56.8,55.7,30.02,West,266,0.0,0.0,96,0.00,,,0.00,0,Wunderground v.1.15,2013-10-03 08:05:00,
2013-10-03 04:11:00,56.8,56.0,30.02,West,266,0.0,0.0,97,0.00,,,0.00,0,Wunderground v.1.15,2013-10-03 08:11:00,
2013-10-03 04:24:00,56.5,55.0,30.02,West,266,0.0,-999.0,96,-99.99,,,0.00,0,weatherlink.com 1.10,2013-10-03 08:24:00,
2013-10-03 04:31:00,56.6,55.5,30.02,West,266,0.0,0.0,96,0.00,,,0.00,0,Wunderground v.1.15,2013-10-03 08:31:00,
2013-10-03 04:39:00,56.5,55.0,30.02,West,266,0.0,-999.0,96,-99.99,,,0.00,0,weatherlink.com 1.10,2013-10-03 08:39:00,
2013-10-03 04:54:00,56.5,55.0,30.02,West,266,0.0,-999.0,96,-99.99,,,0.00,0,weatherlink.com 1.10,2013-10-03 08:54:00,
2013-10-03 05:00:00,56.2,55.1,30.02,West,266,0.0,0.0,96,0.00,,,0.00,0,Wunderground v.1.15,2013-10-03 09:00:00,
2013-10-03 05:06:00,56.1,55.3,30.02,West,266,0.0,0.0,97,0.00,,,0.00,0,Wunderground v.1.15,2013-10-03 09:06:00,
2013-10-03 05:20:00,56.4,55.6,30.03,West,266,0.0,0.0,97,0.00,,,0.00,0,Wunderground v.1.15,2013-10-03 09:20:00,
2013-10-03 05:26:00,56.3,55.5,30.03,West,266,0.0,0.0,97,0.00,,,0.00,0,Wunderground v.1.15,2013-10-03 09:26:00,
2013-10-03 05:39:00,56.4,56.0,30.03,West,266,0.0,-999.0,97,-99.99,,,0.00,0,weatherlink.com 1.10,2013-10-03 09:39:00,
2013-10-03 05:45:00,56.2,55.4,30.03,West,266,0.0,0.0,97,0.00,,,0.00,0,Wunderground v.1.15,2013-10-03 09:45:00,
2013-10-03 05:54:00,55.9,55.0,30.04,West,266,0.0,-999.0,96,-99.99,,,0.00,0,weatherlink.com 1.10,2013-10-03 09:54:00,
2013-10-03 06:15:00,55.4,54.3,30.04,West,266,0.0,0.0,96,0.00,,,0.00,0,Wunderground v.1.15,2013-10-03 10:15:00,
2013-10-03 06:24:00,55.4,54.0,30.04,West,266,0.0,-999.0,96,-99.99,,,0.00,0,weatherlink.com 1.10,2013-10-03 10:24:00,
2013-10-03 06:40:00,55.0,54.0,30.04,West,266,0.0,-999.0,97,-99.99,,,0.00,0,weatherlink.com 1.10,2013-10-03 10:40:00,
2013-10-03 06:54:00,54.8,54.0,30.05,West,266,0.0,-999.0,97,-99.99,,,0.00,0,weatherlink.com 1.10,2013-10-03 10:54:00,
2013-10-03 07:00:00,55.0,54.2,30.05,West,266,0.0,0.0,97,0.00,,,0.00,5,Wunderground v.1.15,2013-10-03 11:00:00,
2013-10-03 07:09:00,54.9,54.0,30.05,West,266,0.0,-999.0,97,-99.99,,,0.00,12,weatherlink.com 1.10,2013-10-03 11:09:00,
2013-10-03 07:24:00,54.6,54.0,30.06,West,266,0.0,-999.0,96,-99.99,,,0.00,35,weatherlink.com 1.10,2013-10-03 11:24:00,
2013-10-03 07:31:00,54.7,53.9,30.06,West,266,0.0,0.0,97,0.00,,,0.00,56,Wunderground v.1.15,2013-10-03 11:31:00,
2013-10-03 07:39:00,55.3,55.0,30.06,West,266,0.0,-999.0,97,-99.99,,,0.00,90,weatherlink.com 1.10,2013-10-03 11:39:00,
2013-10-03 07:50:00,56.1,55.3,30.06,West,266,0.0,0.0,97,0.00,,,0.00,104,Wunderground v.1.15,2013-10-03 11:50:00,
2013-10-03 07:56:00,56.4,55.6,30.06,West,266,0.0,0.0,97,0.00,,,0.00,95,Wunderground v.1.15,2013-10-03 11:56:00,
2013-10-03 08:09:00,57.1,56.0,30.07,West,266,0.0,-999.0,97,-99.99,,,0.00,162,weatherlink.com 1.10,2013-10-03 12:09:00,
2013-10-03 08:24:00,57.7,57.0,30.07,West,266,0.0,-999.0,97,-99.99,,,0.00,172,weatherlink.com 1.10,2013-10-03 12:24:00,
2013-10-03 08:30:00,58.0,57.2,30.07,West,266,0.0,0.0,97,0.00,,,0.00,301,Wunderground v.1.15,2013-10-03 12:30:00,
2013-10-03 08:39:00,58.8,58.0,30.07,SE,138,0.0,-999.0,97,-99.99,,,0.00,322,weatherlink.com 1.10,2013-10-03 12:39:00,
2013-10-03 08:54:00,59.8,59.0,30.07,SE,138,0.0,-999.0,97,-99.99,,,0.00,262,weatherlink.com 1.10,2013-10-03 12:54:00,
2013-10-03 09:01:00,60.6,59.7,30.07,SE,138,0.0,0.0,97,0.00,,,0.00,355,Wunderground v.1.15,2013-10-03 13:01:00,
2013-10-03 09:09:00,61.4,61.0,30.08,SE,138,0.0,-999.0,97,-99.99,,,0.00,257,weatherlink.com 1.10,2013-10-03 13:09:00,
2013-10-03 09:16:00,62.1,61.2,30.08,SE,138,0.0,0.0,97,0.00,,,0.00,362,Wunderground v.1.15,2013-10-03 13:16:00,
2013-10-03 09:24:00,63.2,62.0,30.08,SE,138,0.0,-999.0,96,-99.99,,,0.00,214,weatherlink.com 1.10,2013-10-03 13:24:00,
2013-10-03 09:30:00,63.8,62.3,30.08,SE,138,0.0,0.0,95,0.00,,,0.00,278,Wunderground v.1.15,2013-10-03 13:30:00,
2013-10-03 09:36:00,64.4,62.6,30.07,SE,138,0.0,0.0,94,0.00,,,0.00,446,Wunderground v.1.15,2013-10-03 13:36:00,
2013-10-03 09:54:00,68.1,62.0,30.07,ENE,75,0.0,-999.0,82,-99.99,,,0.00,360,weatherlink.com 1.10,2013-10-03 13:54:00,
2013-10-03 10:01:00,69.6,62.1,30.07,East,84,1.0,1.0,77,0.00,,,0.00,373,Wunderground v.1.15,2013-10-03 14:01:00,
2013-10-03 10:06:00,70.3,61.2,30.07,East,84,1.0,1.0,73,0.00,,,0.00,406,Wunderground v.1.15,2013-10-03 14:06:00,
2013-10-03 10:21:00,71.2,60.9,30.07,East,82,2.0,2.0,70,0.00,,,0.00,322,Wunderground v.1.15,2013-10-03 14:21:00,
2013-10-03 10:35:00,71.7,61.0,30.07,East,83,1.0,1.0,69,0.00,,,0.00,432,Wunderground v.1.15,2013-10-03 14:35:00,
2013-10-03 10:41:00,72.0,61.7,30.07,East,83,1.0,1.0,70,0.00,,,0.00,612,Wunderground v.1.15,2013-10-03 14:41:00,
2013-10-03 10:50:00,73.0,59.7,30.07,ESE,108,1.0,2.0,63,0.00,,,0.00,585,Wunderground v.1.15,2013-10-03 14:50:00,
2013-10-03 10:56:00,73.2,59.4,30.07,East,93,2.0,2.0,62,0.00,,,0.00,621,Wunderground v.1.15,2013-10-03 14:56:00,
2013-10-03 11:09:00,74.1,61.0,30.07,ENE,76,0.0,-999.0,63,-99.99,,,0.00,598,weatherlink.com 1.10,2013-10-03 15:09:00,
2013-10-03 11:15:00,74.3,60.0,30.07,East,79,1.0,1.0,61,0.00,,,0.00,582,Wunderground v.1.15,2013-10-03 15:15:00,
2013-10-03 11:21:00,74.7,61.7,30.06,East,79,1.0,1.0,64,0.00,,,0.00,543,Wunderground v.1.15,2013-10-03 15:21:00,
2013-10-03 11:35:00,75.0,60.6,30.07,East,90,0.0,0.0,61,0.00,,,0.00,536,Wunderground v.1.15,2013-10-03 15:35:00,
2013-10-03 11:40:00,75.0,61.1,30.07,East,88,0.0,0.0,62,0.00,,,0.00,457,Wunderground v.1.15,2013-10-03 15:40:00,
2013-10-03 11:54:00,75.3,62.0,30.06,ESE,106,0.0,-999.0,63,-99.99,,,0.00,455,weatherlink.com 1.10,2013-10-03 15:54:00,
2013-10-03 12:01:00,75.6,63.0,30.06,ESE,104,0.0,0.0,65,0.00,,,0.00,478,Wunderground v.1.15,2013-10-03 16:01:00,
2013-10-03 12:09:00,76.1,62.0,30.06,SSW,205,0.0,-999.0,62,-99.99,,,0.00,482,weatherlink.com 1.10,2013-10-03 16:09:00,
2013-10-03 12:20:00,75.8,62.8,30.06,SW,223,1.0,1.0,64,0.00,,,0.00,404,Wunderground v.1.15,2013-10-03 16:20:00,
2013-10-03 12:26:00,75.8,61.4,30.05,SSE,158,1.0,1.0,61,0.00,,,0.00,353,Wunderground v.1.15,2013-10-03 16:26:00,
2013-10-03 12:35:00,75.9,62.4,30.05,South,170,0.0,0.0,63,0.00,,,0.00,388,Wunderground v.1.15,2013-10-03 16:35:00,
2013-10-03 12:51:00,76.2,62.2,30.05,SSW,199,0.0,0.0,62,0.00,,,0.00,394,Wunderground v.1.15,2013-10-03 16:51:00,
2013-10-03 12:56:00,76.6,62.6,30.05,SSW,199,0.0,0.0,62,0.00,,,0.00,385,Wunderground v.1.15,2013-10-03 16:56:00,
2013-10-03 13:06:00,76.9,63.8,30.04,SSW,198,0.0,0.0,64,0.00,,,0.00,705,Wunderground v.1.15,2013-10-03 17:06:00,
2013-10-03 13:11:00,77.3,63.3,30.03,SSW,198,0.0,0.0,62,0.00,,,0.00,462,Wunderground v.1.15,2013-10-03 17:11:00,
2013-10-03 13:24:00,77.8,64.0,30.03,SSW,201,0.0,-999.0,63,-99.99,,,0.00,352,weatherlink.com 1.10,2013-10-03 17:24:00,
2013-10-03 13:31:00,77.2,63.2,30.03,SSW,209,0.0,2.0,62,0.00,,,0.00,178,Wunderground v.1.15,2013-10-03 17:31:00,
2013-10-03 13:39:00,77.4,64.0,30.02,SSW,206,0.0,-999.0,63,-99.99,,,0.00,563,weatherlink.com 1.10,2013-10-03 17:39:00,
2013-10-03 13:46:00,77.9,64.3,30.02,SSW,199,0.0,0.0,63,0.00,,,0.00,564,Wunderground v.1.15,2013-10-03 17:46:00,
2013-10-03 13:54:00,78.0,64.0,30.01,SW,219,0.0,-999.0,62,-99.99,,,0.00,483,weatherlink.com 1.10,2013-10-03 17:54:00,
2013-10-03 14:01:00,78.2,63.2,30.01,SSW,202,0.0,1.0,60,0.00,,,0.00,397,Wunderground v.1.15,2013-10-03 18:01:00,
2013-10-03 14:09:00,78.1,64.0,30.01,South,172,2.0,-999.0,62,-99.99,,,0.00,376,weatherlink.com 1.10,2013-10-03 18:09:00,
2013-10-03 14:24:00,79.2,65.0,30.01,SSW,198,0.0,-999.0,61,-99.99,,,0.00,527,weatherlink.com 1.10,2013-10-03 18:24:00,
2013-10-03 14:39:00,79.0,64.0,30.00,WSW,242,3.0,-999.0,61,-99.99,,,0.00,306,weatherlink.com 1.10,2013-10-03 18:39:00,
2013-10-03 14:46:00,78.7,64.6,30.00,WSW,242,0.0,2.0,62,0.00,,,0.00,274,Wunderground v.1.15,2013-10-03 18:46:00,
2013-10-03 14:51:00,78.5,64.4,30.00,WSW,242,1.0,3.0,62,0.00,,,0.00,301,Wunderground v.1.15,2013-10-03 18:51:00,
2013-10-03 15:00:00,78.6,64.9,30.00,WSW,242,0.0,0.0,63,0.00,,,0.00,279,Wunderground v.1.15,2013-10-03 19:00:00,
2013-10-03 15:06:00,78.7,65.9,30.00,WSW,242,0.0,0.0,65,0.00,,,0.00,274,Wunderground v.1.15,2013-10-03 19:06:00,
2013-10-03 15:16:00,78.6,64.0,30.00,SSW,197,1.0,1.0,61,0.00,,,0.00,301,Wunderground v.1.15,2013-10-03 19:16:00,
2013-10-03 15:24:00,78.2,65.0,30.00,SW,222,2.0,-999.0,64,-99.99,,,0.00,264,weatherlink.com 1.10,2013-10-03 19:24:00,
2013-10-03 15:35:00,78.1,65.4,30.00,SSW,209,1.0,5.0,65,0.00,,,0.00,373,Wunderground v.1.15,2013-10-03 19:35:00,
2013-10-03 15:54:00,78.1,64.0,30.00,SSW,202,0.0,-999.0,63,-99.99,,,0.00,251,weatherlink.com 1.10,2013-10-03 19:54:00,
2013-10-03 16:09:00,77.7,65.0,30.00,SSW,207,0.0,-999.0,65,-99.99,,,0.00,213,weatherlink.com 1.10,2013-10-03 20:09:00,
2013-10-03 16:24:00,77.4,65.0,30.00,SSW,203,0.0,-999.0,65,-99.99,,,0.00,172,weatherlink.com 1.10,2013-10-03 20:24:00,
2013-10-03 16:39:00,76.9,65.0,30.00,SSW,205,0.0,-999.0,67,-99.99,,,0.00,139,weatherlink.com 1.10,2013-10-03 20:39:00,
2013-10-03 16:50:00,76.6,65.2,29.99,SSW,205,0.0,0.0,68,0.00,,,0.00,118,Wunderground v.1.15,2013-10-03 20:50:00,
2013-10-03 16:56:00,76.5,65.6,29.99,SSW,205,0.0,0.0,69,0.00,,,0.00,109,Wunderground v.1.15,2013-10-03 20:56:00,
2013-10-03 17:09:00,76.2,66.0,29.99,SSW,205,0.0,-999.0,71,-99.99,,,0.00,120,weatherlink.com 1.10,2013-10-03 21:09:00,
2013-10-03 17:31:00,76.1,66.4,30.00,SSW,205,0.0,0.0,72,0.00,,,0.00,148,Wunderground v.1.15,2013-10-03 21:31:00,
2013-10-03 17:39:00,76.1,66.0,30.00,SSW,205,0.0,-999.0,71,-99.99,,,0.00,86,weatherlink.com 1.10,2013-10-03 21:39:00,
2013-10-03 17:45:00,75.9,65.8,30.00,SSW,205,0.0,1.0,71,0.00,,,0.00,63,Wunderground v.1.15,2013-10-03 21:45:00,
2013-10-03 17:51:00,75.6,65.5,30.00,SSW,205,0.0,1.0,71,0.00,,,0.00,54,Wunderground v.1.15,2013-10-03 21:51:00,
2013-10-03 18:00:00,75.1,65.9,30.00,SSW,205,0.0,0.0,73,0.00,,,0.00,39,Wunderground v.1.15,2013-10-03 22:00:00,
2013-10-03 18:06:00,74.9,65.7,30.00,SSW,205,0.0,0.0,73,0.00,,,0.00,35,Wunderground v.1.15,2013-10-03 22:06:00,
2013-10-03 18:20:00,74.1,65.7,30.00,SSW,205,0.0,0.0,75,0.00,,,0.00,21,Wunderground v.1.15,2013-10-03 22:20:00,
2013-10-03 18:26:00,73.9,65.5,30.00,SSW,205,0.0,0.0,75,0.00,,,0.00,18,Wunderground v.1.15,2013-10-03 22:26:00,
2013-10-03 18:35:00,73.6,65.6,30.00,SSW,205,0.0,0.0,76,0.00,,,0.00,7,Wunderground v.1.15,2013-10-03 22:35:00,
2013-10-03 18:55:00,72.2,66.0,30.00,SSW,205,0.0,0.0,81,0.00,,,0.00,0,Wunderground v.1.15,2013-10-03 22:55:00,
2013-10-03 19:01:00,71.8,66.0,30.00,SSW,205,0.0,0.0,82,0.00,,,0.00,0,Wunderground v.1.15,2013-10-03 23:01:00,
2013-10-03 19:09:00,71.3,66.0,30.00,SSW,205,0.0,-999.0,82,-99.99,,,0.00,0,weatherlink.com 1.10,2013-10-03 23:09:00,
2013-10-03 19:16:00,71.1,65.7,30.00,SSW,205,0.0,0.0,83,0.00,,,0.00,0,Wunderground v.1.15,2013-10-03 23:16:00,
2013-10-03 19:24:00,70.6,66.0,30.00,SSW,205,0.0,-999.0,84,-99.99,,,0.00,0,weatherlink.com 1.10,2013-10-03 23:24:00,
2013-10-03 19:39:00,70.3,65.0,30.01,SSW,205,0.0,-999.0,84,-99.99,,,0.00,0,weatherlink.com 1.10,2013-10-03 23:39:00,
2013-10-03 19:54:00,69.6,65.0,30.00,SSW,205,0.0,-999.0,85,-99.99,,,0.00,0,weatherlink.com 1.10,2013-10-03 23:54:00,
2013-10-03 20:01:00,69.2,64.8,30.00,SSW,205,0.0,0.0,86,0.00,,,0.00,0,Wunderground v.1.15,2013-10-04 00:01:00,
2013-10-03 20:09:00,68.7,65.0,30.00,SSW,205,0.0,-999.0,87,-99.99,,,0.00,0,weatherlink.com 1.10,2013-10-04 00:09:00,
2013-10-03 20:15:00,68.4,64.4,30.00,SSW,205,0.0,0.0,87,0.00,,,0.00,0,Wunderground v.1.15,2013-10-04 00:15:00,
2013-10-03 20:24:00,68.8,65.0,30.01,SSW,205,0.0,-999.0,87,-99.99,,,0.00,0,weatherlink.com 1.10,2013-10-04 00:24:00,
2013-10-03 20:36:00,69.1,64.7,30.01,SSW,205,0.0,0.0,86,0.00,,,0.00,0,Wunderground v.1.15,2013-10-04 00:36:00,
2013-10-03 20:54:00,68.9,65.0,30.01,SSW,205,0.0,-999.0,86,-99.99,,,0.00,0,weatherlink.com 1.10,2013-10-04 00:54:00,
2013-10-03 21:10:00,68.6,65.0,30.01,SSW,205,0.0,-999.0,87,-99.99,,,0.00,0,weatherlink.com 1.10,2013-10-04 01:10:00,
2013-10-03 21:24:00,68.3,64.0,30.01,SSW,205,0.0,-999.0,87,-99.99,,,0.00,0,weatherlink.com 1.10,2013-10-04 01:24:00,
2013-10-03 21:39:00,68.4,64.0,30.02,SSW,205,0.0,-999.0,87,-99.99,,,0.00,0,weatherlink.com 1.10,2013-10-04 01:39:00,
2013-10-03 21:51:00,68.3,64.3,30.02,SSW,205,0.0,0.0,87,0.00,,,0.00,0,Wunderground v.1.15,2013-10-04 01:51:00,
2013-10-03 22:06:00,67.3,63.6,30.03,SSW,205,0.0,0.0,88,0.00,,,0.00,0,Wunderground v.1.15,2013-10-04 02:06:00,
2013-10-03 22:24:00,66.4,63.0,30.04,SSW,205,0.0,-999.0,89,-99.99,,,0.00,0,weatherlink.com 1.10,2013-10-04 02:24:00,
2013-10-03 22:39:00,65.8,63.0,30.03,SSW,205,0.0,-999.0,91,-99.99,,,0.00,0,weatherlink.com 1.10,2013-10-04 02:39:00,
2013-10-03 22:54:00,65.2,63.0,30.03,SSW,205,0.0,-999.0,92,-99.99,,,0.00,0,weatherlink.com 1.10,2013-10-04 02:54:00,
2013-10-03 23:09:00,64.7,63.0,30.03,SSW,205,0.0,-999.0,93,-99.99,,,0.00,0,weatherlink.com 1.10,2013-10-04 03:09:00,
2013-10-03 23:20:00,64.4,62.3,30.03,SSW,205,0.0,0.0,93,0.00,,,0.00,0,Wunderground v.1.15,2013-10-04 03:20:00,
2013-10-03 23:26:00,64.2,62.1,30.03,SSW,205,0.0,0.0,93,0.00,,,0.00,0,Wunderground v.1.15,2013-10-04 03:26:00,
2013-10-03 23:39:00,63.5,62.0,30.02,SSW,205,0.0,-999.0,94,-99.99,,,0.00,0,weatherlink.com 1.10,2013-10-04 03:39:00,
2013-10-03 23:46:00,63.4,61.6,30.02,SSW,205,0.0,0.0,94,0.00,,,0.00,0,Wunderground v.1.15,2013-10-04 03:46:00,
2013-10-03 23:54:00,63.2,62.0,30.02,SSW,205,0.0,-999.0,94,-99.99,,,0.00,0,weatherlink.com 1.10,2013-10-04 03:54:00,